Time;durP1;ratioP1;P1;durP2;ratioP2;P2;SDS_P1;SDS_P2;PMS_P1;PMS_P2;Temp;Humidity;BMP_temperature;BMP_pressure;BME280_temperature;BME280_humidity;BME280_pressure;Samples;Min_cycle;Max_cycle;Signal;HPM_P1;HPM_P2
2021/05/13 00:00:38;;;;;;;0.60;0.60;;;;;;;8.08;87.08;91769.97;4972313;28;20129;-78
2021/05/13 00:03:04;;;;;;;1.08;0.68;;;;;;;8.06;86.75;91758.25;4988689;28;20519;-78
2021/05/13 00:05:30;;;;;;;1.23;0.70;;;;;;;8.02;87.01;91762.53;4974099;28;20117;-77
2021/05/13 00:07:56;;;;;;;0.85;0.73;;;;;;;7.99;86.45;91757.84;4974975;28;20051;-77
2021/05/13 00:10:23;;;;;;;1.33;0.85;;;;;;;7.95;88.08;91756.88;4955648;28;20040;-76
2021/05/13 00:12:52;;;;;;;0.57;0.57;;;;;;;7.91;87.33;91761.91;4955628;28;20053;-76
2021/05/13 00:15:23;;;;;;;1.15;0.68;;;;;;;7.87;86.77;91758.31;4970416;28;20042;-76
2021/05/13 00:17:50;;;;;;;1.15;0.65;;;;;;;7.86;87.52;91754.19;4971059;28;20074;-76
2021/05/13 00:20:21;;;;;;;2.47;0.73;;;;;;;7.84;87.26;91756.31;4972878;28;20046;-76
2021/05/13 00:22:47;;;;;;;0.70;0.70;;;;;;;7.80;87.02;91750.88;4955825;28;20110;-75
2021/05/13 00:25:14;;;;;;;1.60;0.75;;;;;;;7.78;87.04;91753.00;4955480;28;20502;-77
2021/05/13 00:27:40;;;;;;;1.60;1.35;;;;;;;7.77;86.78;91753.28;4972615;28;20133;-76
2021/05/13 00:30:07;;;;;;;0.85;0.70;;;;;;;7.75;86.37;91755.41;4939608;28;20125;-76
2021/05/13 00:32:36;;;;;;;1.33;0.80;;;;;;;7.75;86.38;91750.22;4972508;28;20043;-76
2021/05/13 00:35:02;;;;;;;0.77;0.70;;;;;;;7.69;87.21;91752.88;4975092;28;20027;-76
2021/05/13 00:37:28;;;;;;;1.27;0.90;;;;;;;7.67;87.15;91747.19;4992096;28;20038;-76
2021/05/13 00:39:53;;;;;;;0.93;0.68;;;;;;;7.62;86.78;91749.88;4974811;28;20096;-77
2021/05/13 00:42:19;;;;;;;2.00;0.77;;;;;;;7.60;87.83;91740.78;4974541;28;20302;-76
2021/05/13 00:44:45;;;;;;;0.68;0.63;;;;;;;7.56;88.10;91745.78;4974730;28;20030;-76
2021/05/13 00:47:14;;;;;;;0.70;0.70;;;;;;;7.51;86.91;91746.66;4991730;28;20053;-76
2021/05/13 00:49:42;;;;;;;2.40;0.70;;;;;;;7.45;86.74;91744.41;4991828;28;20444;-76
2021/05/13 00:52:09;;;;;;;0.75;0.60;;;;;;;7.40;87.37;91736.69;4983973;28;20050;-75
2021/05/13 00:54:39;;;;;;;1.17;0.80;;;;;;;7.39;86.66;91748.16;4984928;28;20113;-76
2021/05/13 00:57:06;;;;;;;1.77;0.73;;;;;;;7.34;87.70;91741.22;4974334;28;20504;-76
2021/05/13 00:59:34;;;;;;;0.73;0.60;;;;;;;7.34;88.53;91743.00;4974116;28;20090;-77
2021/05/13 01:02:00;;;;;;;1.05;0.73;;;;;;;7.32;88.56;91740.72;4991744;28;20392;-76
2021/05/13 01:04:26;;;;;;;2.67;0.68;;;;;;;7.34;88.51;91745.63;4991558;28;20026;-76
2021/05/13 01:06:51;;;;;;;4.53;0.90;;;;;;;7.28;88.14;91748.31;4974608;28;20039;-76
2021/05/13 01:09:26;;;;;;;1.67;0.85;;;;;;;7.25;88.99;91748.09;4972002;28;20069;-75
2021/05/13 01:11:56;;;;;;;0.70;0.70;;;;;;;7.22;88.39;91746.81;4972101;28;20123;-76
2021/05/13 01:19:58;;;;;;;0.77;0.73;;;;;;;7.27;87.86;91746.78;4954615;28;20555;-76
2021/05/13 01:22:24;;;;;;;1.15;0.80;;;;;;;7.27;87.73;91744.16;4954815;28;20070;-76
2021/05/13 01:24:51;;;;;;;0.70;0.70;;;;;;;7.27;87.51;91749.38;4971966;28;20038;-76
2021/05/13 01:27:19;;;;;;;0.70;0.70;;;;;;;7.26;87.95;91747.03;4975068;28;20039;-77
2021/05/13 01:29:47;;;;;;;0.82;0.80;;;;;;;7.24;87.83;91738.75;4975860;28;20437;-76
2021/05/13 01:32:14;;;;;;;2.13;0.90;;;;;;;7.22;88.29;91733.03;4986137;28;20544;-76
2021/05/13 01:34:39;;;;;;;2.42;0.80;;;;;;;7.22;88.41;91733.81;4961879;28;20042;-75
2021/05/13 01:37:05;;;;;;;0.65;0.60;;;;;;;7.22;88.32;91739.03;4995109;28;20042;-77
2021/05/13 01:39:31;;;;;;;3.72;0.60;;;;;;;7.20;87.91;91745.56;4976904;28;20026;-76
2021/05/13 01:41:57;;;;;;;1.17;0.70;;;;;;;7.18;87.57;91734.66;4958536;28;20039;-76
2021/05/13 01:44:22;;;;;;;1.05;0.80;;;;;;;7.14;87.42;91739.69;4975460;28;20097;-76
2021/05/13 01:46:48;;;;;;;1.27;0.60;;;;;;;7.12;87.70;91736.59;4958175;28;20507;-77
2021/05/13 01:49:19;;;;;;;0.60;0.60;;;;;;;7.09;87.96;91734.53;4975405;28;20101;-75
2021/05/13 01:51:46;;;;;;;0.70;0.70;;;;;;;7.06;88.20;91728.06;4976244;28;20409;-76
2021/05/13 01:54:13;;;;;;;0.73;0.70;;;;;;;7.03;88.17;91723.44;4974167;28;20030;-76
2021/05/13 01:56:38;;;;;;;1.02;0.80;;;;;;;7.01;87.82;91722.16;4957718;28;20441;-76
2021/05/13 01:59:04;;;;;;;2.28;0.80;;;;;;;6.98;87.51;91728.72;4942034;28;20034;-77
2021/05/13 02:01:30;;;;;;;0.60;0.60;;;;;;;6.95;88.23;91725.88;4975161;28;20936;-75
2021/05/13 02:03:55;;;;;;;0.63;0.60;;;;;;;6.91;88.11;91719.69;4958017;28;20500;-75
2021/05/13 02:06:21;;;;;;;1.80;0.93;;;;;;;6.87;88.33;91717.66;4975088;28;20038;-76
2021/05/13 02:08:47;;;;;;;1.77;0.70;;;;;;;6.83;88.20;91708.88;4974896;28;20397;-76
2021/05/13 02:11:12;;;;;;;0.88;0.57;;;;;;;6.80;88.39;91719.06;4957689;28;20070;-76
2021/05/13 02:13:38;;;;;;;2.60;1.08;;;;;;;6.77;88.12;91714.44;4974084;28;20512;-76
2021/05/13 02:16:04;;;;;;;2.67;0.90;;;;;;;6.74;88.17;91715.75;4957413;28;20437;-76
2021/05/13 02:18:30;;;;;;;0.88;0.80;;;;;;;6.71;88.02;91716.34;4972385;28;20058;-76
2021/05/13 02:20:55;;;;;;;1.48;0.90;;;;;;;6.68;87.92;91717.66;4957471;28;20042;-76
2021/05/13 02:23:21;;;;;;;1.38;0.80;;;;;;;6.66;88.00;91708.56;4974827;28;20408;-76
2021/05/13 02:25:47;;;;;;;1.45;0.80;;;;;;;6.64;87.59;91705.47;4957393;28;20049;-76
2021/05/13 02:28:14;;;;;;;1.33;0.88;;;;;;;6.62;88.17;91704.97;4974575;28;20027;-76
2021/05/13 02:30:40;;;;;;;0.70;0.60;;;;;;;6.58;88.06;91707.38;4974592;28;20035;-76
2021/05/13 02:33:06;;;;;;;1.90;0.88;;;;;;;6.54;87.80;91705.63;4957328;28;20031;-76
2021/05/13 02:35:31;;;;;;;1.08;0.60;;;;;;;6.51;87.95;91700.97;4957334;28;20049;-76
2021/05/13 02:37:58;;;;;;;1.05;0.85;;;;;;;6.46;87.65;91700.00;4956208;28;20485;-76
2021/05/13 02:40:24;;;;;;;0.60;0.55;;;;;;;6.44;87.93;91696.13;4957620;28;20068;-75
2021/05/13 02:42:49;;;;;;;1.20;0.73;;;;;;;6.42;88.00;91698.25;4974281;28;20045;-75
2021/05/13 02:45:16;;;;;;;0.82;0.80;;;;;;;6.40;88.50;91695.91;4925732;28;20070;-77
2021/05/13 02:47:42;;;;;;;1.13;0.65;;;;;;;6.36;88.21;91699.34;4973110;28;20015;-76
2021/05/13 02:50:10;;;;;;;1.00;0.60;;;;;;;6.34;87.33;91697.03;4957286;28;20066;-75
2021/05/13 02:52:36;;;;;;;0.70;0.70;;;;;;;6.31;87.26;91695.00;4985487;28;20030;-76
2021/05/13 02:55:03;;;;;;;1.30;0.90;;;;;;;6.27;87.10;91688.78;4976398;28;20041;-77
2021/05/13 02:57:28;;;;;;;4.43;1.05;;;;;;;6.24;85.75;91699.75;4993444;28;20128;-76
2021/05/13 03:02:43;;;;;;;2.33;1.00;;;;;;;6.17;86.07;91688.91;4929571;28;20046;-76
2021/05/13 03:05:10;;;;;;;0.80;0.75;;;;;;;6.13;85.87;91688.69;4956727;28;20417;-75
2021/05/13 03:07:43;;;;;;;1.52;1.00;;;;;;;6.10;86.15;91680.69;4956222;28;20572;-75
2021/05/13 03:12:55;;;;;;;1.02;0.70;;;;;;;5.99;85.49;91680.81;4973740;28;20054;-75
2021/05/13 03:15:21;;;;;;;1.38;1.00;;;;;;;5.94;86.17;91670.44;4940369;28;20487;-75
2021/05/13 03:17:49;;;;;;;1.60;1.00;;;;;;;5.92;85.62;91672.53;4951025;28;20059;-78
2021/05/13 03:20:18;;;;;;;1.65;0.85;;;;;;;5.87;86.01;91667.38;4954471;29;20046;-77
2021/05/13 03:22:44;;;;;;;0.85;0.75;;;;;;;5.82;86.57;91664.84;4953293;29;20039;-75
2021/05/13 03:25:11;;;;;;;1.55;0.82;;;;;;;5.77;86.05;91662.31;4953159;29;20042;-75
2021/05/13 03:30:06;;;;;;;1.35;0.80;;;;;;;5.71;85.41;91664.19;4956100;28;20064;-76
2021/05/13 03:32:31;;;;;;;2.90;0.90;;;;;;;5.73;85.95;91661.31;4955980;28;20047;-78
2021/05/13 03:34:57;;;;;;;0.85;0.80;;;;;;;5.71;86.01;91653.03;4956110;28;20031;-77
2021/05/13 03:37:26;;;;;;;1.00;0.85;;;;;;;5.68;86.06;91656.94;4969870;28;20382;-77
2021/05/13 03:39:53;;;;;;;1.08;0.80;;;;;;;5.69;86.02;91660.31;4986283;28;20065;-77
2021/05/13 03:42:18;;;;;;;2.03;0.80;;;;;;;5.66;85.73;91653.09;4956105;28;20039;-76
2021/05/13 03:44:44;;;;;;;1.40;1.00;;;;;;;5.61;86.27;91654.69;4955828;28;20042;-77
2021/05/13 03:47:10;;;;;;;1.33;0.80;;;;;;;5.60;86.05;91652.34;5006017;28;20125;-78
2021/05/13 03:49:36;;;;;;;1.27;0.80;;;;;;;5.58;86.86;91652.66;4974990;28;20035;-77
2021/05/13 03:52:01;;;;;;;4.82;0.95;;;;;;;5.58;85.69;91644.84;4974841;28;20076;-76
2021/05/13 03:54:27;;;;;;;0.70;0.70;;;;;;;5.55;85.48;91645.38;4973868;28;20027;-77
2021/05/13 03:56:53;;;;;;;2.30;1.10;;;;;;;5.53;86.19;91642.28;4973181;28;20498;-77
2021/05/13 03:59:19;;;;;;;1.10;0.80;;;;;;;5.52;86.43;91637.41;4967951;28;20532;-77
2021/05/13 04:04:29;;;;;;;0.88;0.75;;;;;;;5.53;86.51;91631.91;4954211;29;20042;-77
2021/05/13 04:06:54;;;;;;;1.00;0.80;;;;;;;5.56;85.97;91625.38;4953927;29;20486;-77
2021/05/13 04:09:21;;;;;;;1.55;1.00;;;;;;;5.57;86.53;91627.72;4955396;28;20406;-78
2021/05/13 04:11:49;;;;;;;0.95;0.80;;;;;;;5.59;86.58;91624.84;4955960;28;20525;-77
2021/05/13 04:14:14;;;;;;;1.75;0.80;;;;;;;5.59;86.90;91630.03;4954361;29;20043;-77
2021/05/13 04:16:42;;;;;;;2.92;1.30;;;;;;;5.60;86.09;91624.56;4923137;28;20121;-76
2021/05/13 04:19:08;;;;;;;1.08;0.77;;;;;;;5.68;84.62;91622.44;4957158;28;20089;-76
2021/05/13 04:21:34;;;;;;;0.60;0.60;;;;;;;5.72;82.97;91619.00;4957127;28;20038;-77
2021/05/13 04:24:00;;;;;;;1.30;1.00;;;;;;;5.77;82.89;91618.16;4940933;28;20042;-76
2021/05/13 04:26:26;;;;;;;1.50;1.00;;;;;;;5.81;80.95;91612.16;4975094;28;20118;-77
2021/05/13 04:28:52;;;;;;;1.75;1.05;;;;;;;5.88;80.64;91616.22;4940898;28;20034;-77
2021/05/13 04:31:18;;;;;;;1.95;1.08;;;;;;;6.01;78.72;91613.75;4974767;28;20034;-77
2021/05/13 04:33:43;;;;;;;2.55;1.10;;;;;;;6.08;78.81;91610.81;4956792;28;20049;-77
2021/05/13 04:36:10;;;;;;;0.85;0.73;;;;;;;6.13;78.59;91608.16;4941886;28;20034;-78
2021/05/13 04:38:35;;;;;;;1.83;1.00;;;;;;;6.24;75.92;91614.75;4975268;28;20045;-78
2021/05/13 04:41:01;;;;;;;0.90;0.85;;;;;;;6.36;73.59;91614.34;4957606;28;20026;-77
2021/05/13 04:43:34;;;;;;;0.98;0.80;;;;;;;6.60;74.44;91610.91;4986710;28;20073;-77
2021/05/13 04:46:00;;;;;;;2.00;0.98;;;;;;;6.76;78.28;91609.59;4977176;28;20572;-78
2021/05/13 04:48:28;;;;;;;1.83;0.90;;;;;;;6.84;76.65;91611.56;4974469;28;20122;-78
2021/05/13 04:50:54;;;;;;;3.13;1.00;;;;;;;6.91;73.63;91605.22;4957466;28;20043;-78
2021/05/13 04:53:20;;;;;;;1.58;0.80;;;;;;;6.98;70.88;91606.41;4972164;28;20030;-78
2021/05/13 04:55:46;;;;;;;0.77;0.77;;;;;;;7.12;68.01;91611.66;4972492;28;20046;-77
2021/05/13 04:58:11;;;;;;;1.83;0.80;;;;;;;7.23;68.59;91604.44;4974367;28;20031;-78
2021/05/13 05:00:37;;;;;;;0.88;0.70;;;;;;;7.34;69.03;91610.22;4981878;28;20054;-78
2021/05/13 05:03:03;;;;;;;1.15;0.80;;;;;;;7.44;67.74;91613.44;4976971;28;20058;-79
2021/05/13 05:05:30;;;;;;;2.90;0.68;;;;;;;7.57;66.96;91611.91;4978554;28;20039;-80
2021/05/13 05:07:56;;;;;;;2.03;0.98;;;;;;;7.66;67.55;91610.19;4960092;28;20035;-77
2021/05/13 05:10:22;;;;;;;0.65;0.65;;;;;;;7.76;68.40;91608.44;4961005;28;20689;-77
2021/05/13 05:12:48;;;;;;;2.40;0.90;;;;;;;7.86;67.60;91606.44;4959373;28;20109;-77
2021/05/13 05:15:14;;;;;;;0.90;0.80;;;;;;;7.98;66.97;91600.72;4973660;28;20114;-77
2021/05/13 05:17:40;;;;;;;2.05;1.10;;;;;;;8.09;67.41;91606.50;4977235;28;20069;-77
2021/05/13 05:20:06;;;;;;;1.58;0.70;;;;;;;8.22;65.18;91604.94;4978078;28;20031;-77
2021/05/13 05:22:32;;;;;;;1.33;0.80;;;;;;;8.34;62.61;91602.59;4980142;28;20749;-78
2021/05/13 05:24:58;;;;;;;1.50;0.90;;;;;;;8.49;64.23;91599.69;4976542;28;20065;-76
2021/05/13 05:27:24;;;;;;;2.30;1.00;;;;;;;8.63;64.18;91602.25;4959268;28;20063;-78
2021/05/13 05:29:49;;;;;;;2.80;1.05;;;;;;;8.74;63.33;91592.38;4958544;28;20167;-77
2021/05/13 05:32:15;;;;;;;1.13;0.90;;;;;;;8.99;59.43;91590.25;4976685;28;20037;-78
2021/05/13 05:34:41;;;;;;;4.00;0.90;;;;;;;9.12;60.42;91584.94;4960155;28;20038;-78
2021/05/13 05:37:07;;;;;;;1.65;0.95;;;;;;;9.39;70.55;91591.09;4976119;28;20038;-78
2021/05/13 05:39:33;;;;;;;2.38;1.02;;;;;;;9.49;69.06;91582.22;4943840;28;20043;-78
2021/05/13 05:41:58;;;;;;;2.80;1.10;;;;;;;9.71;74.34;91595.22;4974649;28;20271;-77
2021/05/13 05:44:24;;;;;;;2.22;1.00;;;;;;;9.86;66.63;91583.59;4959450;28;20042;-77
2021/05/13 05:46:50;;;;;;;1.33;1.00;;;;;;;9.97;66.47;91574.41;4975196;28;20145;-78
2021/05/13 05:49:16;;;;;;;2.00;1.20;;;;;;;10.14;70.38;91578.88;4975683;28;20525;-78
2021/05/13 05:51:42;;;;;;;1.85;1.10;;;;;;;10.39;73.09;91576.66;4978531;28;20092;-78
2021/05/13 05:54:08;;;;;;;2.65;1.00;;;;;;;10.47;74.31;91578.50;4976153;28;20048;-77
2021/05/13 05:56:33;;;;;;;2.15;1.20;;;;;;;11.48;71.95;91572.22;4977087;28;20038;-78
2021/05/13 05:59:00;;;;;;;3.63;1.20;;;;;;;14.73;57.34;91574.78;4943137;28;20058;-78
2021/05/13 06:01:26;;;;;;;2.40;1.20;;;;;;;17.14;48.90;91576.03;4990844;28;20159;-79
2021/05/13 06:03:53;;;;;;;1.42;1.10;;;;;;;18.66;40.14;91566.81;4966525;28;20565;-79
2021/05/13 06:06:19;;;;;;;1.15;1.00;;;;;;;19.71;39.10;91565.06;4978570;28;20480;-78
2021/05/13 06:08:45;;;;;;;2.55;1.00;;;;;;;20.98;37.45;91568.31;4990016;28;20043;-77
2021/05/13 06:11:11;;;;;;;1.70;1.10;;;;;;;20.27;33.87;91562.53;4958557;28;20045;-79
2021/05/13 06:13:36;;;;;;;2.15;1.10;;;;;;;21.34;33.90;91563.13;4956471;28;20030;-78
2021/05/13 06:16:03;;;;;;;1.23;0.98;;;;;;;22.65;28.41;91560.28;4977580;28;20034;-79
2021/05/13 06:18:28;;;;;;;1.10;1.00;;;;;;;23.18;29.84;91564.78;4956860;28;20050;-77
2021/05/13 06:20:54;;;;;;;1.75;1.20;;;;;;;23.37;28.21;91568.91;4959530;28;20035;-78
2021/05/13 06:23:20;;;;;;;1.77;1.30;;;;;;;23.89;28.66;91557.63;4976837;28;20497;-78
2021/05/13 06:25:45;;;;;;;1.75;1.20;;;;;;;23.26;27.42;91560.94;4978555;28;20042;-77
2021/05/13 06:28:11;;;;;;;2.47;1.20;;;;;;;21.52;34.13;91557.13;4975806;28;20033;-78
2021/05/13 06:30:38;;;;;;;2.08;1.27;;;;;;;22.95;31.65;91557.19;4976194;28;20074;-77
2021/05/13 06:33:05;;;;;;;2.53;1.17;;;;;;;23.52;29.97;91550.91;4975681;28;20031;-78
2021/05/13 06:35:32;;;;;;;1.85;1.20;;;;;;;22.54;31.00;91546.97;4985027;28;20065;-80
2021/05/13 06:37:57;;;;;;;1.60;1.00;;;;;;;19.39;38.68;91548.81;4979265;28;20066;-78
2021/05/13 06:40:24;;;;;;;4.53;1.30;;;;;;;18.38;46.28;91552.06;4971462;28;20086;-78
2021/05/13 06:42:50;;;;;;;5.68;1.20;;;;;;;19.55;41.13;91554.66;4969496;28;20118;-78
2021/05/13 06:45:15;;;;;;;1.55;0.82;;;;;;;18.83;41.26;91552.31;4975888;28;20073;-78
2021/05/13 06:47:43;;;;;;;6.55;0.80;;;;;;;17.37;43.57;91549.63;4974280;28;20039;-78
2021/05/13 06:50:09;;;;;;;1.58;0.90;;;;;;;16.24;47.54;91566.19;4955911;28;20424;-81
2021/05/13 06:52:36;;;;;;;1.35;0.80;;;;;;;15.78;47.18;91565.09;4968302;28;20086;-77
2021/05/13 06:55:03;;;;;;;3.05;1.10;;;;;;;15.60;48.41;91564.63;4972791;28;20098;-77
2021/05/13 06:57:28;;;;;;;1.73;0.98;;;;;;;15.67;40.84;91569.31;4974013;28;20067;-78
2021/05/13 06:59:54;;;;;;;0.65;0.65;;;;;;;15.58;42.66;91572.13;4974695;28;20074;-77
2021/05/13 07:02:21;;;;;;;1.88;0.82;;;;;;;15.26;44.35;91560.75;4957895;28;20080;-78
2021/05/13 07:04:47;;;;;;;1.42;0.90;;;;;;;15.50;44.45;91565.91;4958037;28;20046;-81
2021/05/13 07:07:13;;;;;;;2.08;0.90;;;;;;;15.79;45.61;91570.06;4975460;28;20031;-79
2021/05/13 07:09:38;;;;;;;1.35;0.80;;;;;;;15.60;40.63;91562.78;4958385;28;20501;-78
2021/05/13 07:12:04;;;;;;;2.85;1.00;;;;;;;15.91;45.70;91568.44;4975869;28;20034;-78
2021/05/13 07:14:30;;;;;;;0.95;0.70;;;;;;;16.56;44.48;91565.38;4957477;28;20097;-77
2021/05/13 07:16:56;;;;;;;1.70;1.05;;;;;;;16.26;48.98;91573.78;4958266;28;20047;-79
2021/05/13 07:19:21;;;;;;;4.05;1.50;;;;;;;15.34;55.98;91567.75;4953465;29;20073;-77
2021/05/13 07:21:47;;;;;;;2.25;1.17;;;;;;;14.85;47.37;91567.94;4963796;28;20035;-78
2021/05/13 07:24:13;;;;;;;4.72;1.02;;;;;;;15.05;49.02;91567.00;4941534;28;20078;-79
2021/05/13 07:26:39;;;;;;;1.55;0.93;;;;;;;15.31;47.73;91563.13;4941369;28;20044;-78
2021/05/13 07:29:05;;;;;;;1.55;0.80;;;;;;;15.22;39.74;91554.63;4974194;28;20038;-78
2021/05/13 07:31:31;;;;;;;4.68;1.00;;;;;;;15.15;41.39;91553.34;4990174;28;20027;-80
2021/05/13 07:33:57;;;;;;;1.58;0.90;;;;;;;15.46;39.41;91559.78;4974304;28;20567;-79
2021/05/13 07:36:23;;;;;;;2.72;1.20;;;;;;;14.77;52.35;91551.94;4980015;28;20043;-79
2021/05/13 07:38:49;;;;;;;4.07;1.50;;;;;;;14.70;58.25;91557.03;4982416;28;20035;-79
2021/05/13 07:41:15;;;;;;;2.67;1.25;;;;;;;14.07;54.13;91556.63;4963967;28;20030;-79
2021/05/13 07:43:43;;;;;;;1.48;1.00;;;;;;;14.34;51.03;91550.69;4956405;28;20055;-79
2021/05/13 07:46:09;;;;;;;2.25;1.10;;;;;;;14.66;50.31;91553.50;4970886;28;20033;-79
2021/05/13 07:48:35;;;;;;;3.10;1.15;;;;;;;14.52;53.98;91553.06;4975283;28;20100;-80
2021/05/13 07:51:01;;;;;;;1.70;1.10;;;;;;;14.64;51.74;91542.53;4956950;28;20062;-78
2021/05/13 07:53:26;;;;;;;1.58;0.95;;;;;;;14.25;51.82;91547.41;4974165;28;20034;-79
2021/05/13 07:55:53;;;;;;;4.95;1.10;;;;;;;14.12;51.42;91553.78;4975121;28;20420;-77
2021/05/13 07:58:19;;;;;;;1.80;1.20;;;;;;;13.85;60.13;91561.25;4974918;28;20031;-81
2021/05/13 08:00:45;;;;;;;3.97;1.30;;;;;;;14.21;57.82;91562.34;4974224;28;20038;-80
2021/05/13 08:03:11;;;;;;;1.73;1.00;;;;;;;14.20;55.27;91555.53;4974298;28;20076;-80
2021/05/13 08:05:37;;;;;;;2.60;0.90;;;;;;;14.22;52.04;91548.06;4956352;28;20352;-79
2021/05/13 08:08:03;;;;;;;1.00;0.90;;;;;;;14.47;51.67;91554.06;4973961;28;20533;-79
2021/05/13 08:10:29;;;;;;;3.03;1.10;;;;;;;14.08;58.55;91560.81;4956891;28;20039;-79
2021/05/13 08:12:55;;;;;;;2.08;1.10;;;;;;;14.63;59.03;91561.31;4974173;28;20063;-78
2021/05/13 08:15:20;;;;;;;2.92;1.15;;;;;;;14.73;56.02;91564.25;4970269;28;20504;-79
2021/05/13 08:17:46;;;;;;;2.50;1.23;;;;;;;14.23;54.98;91557.50;4946229;28;20063;-78
2021/05/13 08:20:14;;;;;;;2.80;0.88;;;;;;;14.48;52.39;91557.47;4973212;28;20035;-79
2021/05/13 08:22:45;;;;;;;1.05;0.80;;;;;;;14.34;54.34;91550.69;4976895;28;20066;-77
2021/05/13 08:25:14;;;;;;;2.08;0.98;;;;;;;14.43;57.82;91547.16;4975147;28;20091;-79
2021/05/13 08:27:40;;;;;;;1.65;1.00;;;;;;;14.41;54.88;91554.63;4961089;28;20027;-79
2021/05/13 08:30:07;;;;;;;2.47;1.13;;;;;;;14.54;59.34;91548.22;4975509;28;20053;-78
2021/05/13 08:32:33;;;;;;;1.15;0.88;;;;;;;14.62;57.02;91547.38;4973055;28;20086;-78
2021/05/13 08:35:03;;;;;;;2.53;1.05;;;;;;;14.27;58.54;91561.00;4981067;28;20573;-79
2021/05/13 08:37:29;;;;;;;4.78;1.05;;;;;;;14.04;61.65;91557.28;4970499;28;20519;-79
2021/05/13 08:39:55;;;;;;;3.38;1.10;;;;;;;14.11;59.94;91557.50;4987871;28;20034;-77
2021/05/13 08:42:21;;;;;;;3.33;0.80;;;;;;;14.37;60.46;91554.53;4973673;28;20039;-79
2021/05/13 08:44:46;;;;;;;4.22;0.90;;;;;;;14.51;60.16;91559.44;4956713;28;20045;-79
2021/05/13 08:47:12;;;;;;;1.40;0.90;;;;;;;14.65;56.67;91548.56;4942858;29;20049;-80
2021/05/13 08:49:39;;;;;;;1.45;0.93;;;;;;;14.56;53.37;91551.31;4961087;28;20022;-79
2021/05/13 08:52:10;;;;;;;2.03;1.17;;;;;;;14.39;55.98;91552.34;4992500;28;20125;-78
2021/05/13 08:54:36;;;;;;;1.48;0.80;;;;;;;14.41;52.78;91550.13;4991928;28;20408;-79
2021/05/13 08:57:02;;;;;;;4.57;1.13;;;;;;;14.44;53.98;91553.97;4992014;28;20037;-79
2021/05/13 08:59:28;;;;;;;1.52;0.70;;;;;;;14.29;46.47;91544.88;4978236;28;20386;-79
2021/05/13 09:02:03;;;;;;;4.50;2.00;;;;;;;14.56;58.36;91552.09;4940122;28;20090;-79
2021/05/13 09:04:43;;;;;;;1.13;0.90;;;;;;;14.47;56.19;91550.66;4955409;28;20545;-78
2021/05/13 09:07:28;;;;;;;2.67;0.90;;;;;;;14.50;54.98;91542.88;4971132;28;20445;-81
2021/05/13 09:10:09;;;;;;;0.80;0.73;;;;;;;14.55;49.29;91549.81;4968916;28;20143;-79
2021/05/13 09:12:46;;;;;;;1.38;0.88;;;;;;;14.83;54.41;91559.59;4958774;28;20027;-78
2021/05/13 09:15:15;;;;;;;2.35;0.95;;;;;;;15.01;55.34;91560.84;4972329;28;20113;-79
2021/05/13 09:17:43;;;;;;;1.98;1.00;;;;;;;14.63;54.47;91546.25;4927743;28;750494;-79
2021/05/13 09:20:24;;;;;;;2.67;0.95;;;;;;;15.25;49.98;91548.69;4958711;28;20035;-76
2021/05/13 09:22:50;;;;;;;1.92;1.00;;;;;;;15.18;45.50;91544.00;4970700;28;20039;-78
2021/05/13 09:25:16;;;;;;;0.65;0.65;;;;;;;15.83;42.25;91546.41;4971842;28;20059;-77
2021/05/13 09:27:48;;;;;;;1.88;0.90;;;;;;;15.86;42.21;91544.94;4972597;28;20401;-79
2021/05/13 09:30:18;;;;;;;;;;;;;;;15.45;46.12;91545.06;4957287;28;20039;-78
2021/05/13 09:33:01;;;;;;;0.85;0.80;;;;;;;16.08;45.33;91546.22;4971616;28;19957;-78
2021/05/13 09:35:34;;;;;;;1.15;0.70;;;;;;;16.42;41.53;91545.47;4953977;28;20548;-79
2021/05/13 09:38:05;;;;;;;2.88;1.05;;;;;;;16.20;47.91;91543.47;4962866;28;20528;-79
2021/05/13 09:40:32;;;;;;;2.20;1.10;;;;;;;15.89;47.74;91541.63;4970556;28;20451;-78
2021/05/13 09:43:11;;;;;;;2.28;0.90;;;;;;;15.82;46.74;91539.56;4960326;28;20023;-76
2021/05/13 09:45:57;;;;;;;2.05;0.95;;;;;;;15.90;47.41;91543.94;4971865;28;20489;-76
2021/05/13 09:48:42;;;;;;;1.77;0.90;;;;;;;16.27;44.49;91543.63;4958463;28;20042;-76
2021/05/13 09:51:17;;;;;;;2.42;0.80;;;;;;;16.43;47.22;91540.94;4976371;28;20074;-76
2021/05/13 09:53:43;;;;;;;1.98;0.90;;;;;;;16.29;51.51;91524.81;4979085;28;20027;-79
2021/05/13 09:56:22;;;;;;;2.75;0.90;;;;;;;16.64;40.63;91528.19;4946849;28;20054;-79
2021/05/13 09:58:48;;;;;;;1.15;0.70;;;;;;;16.25;41.59;91524.72;4948392;28;20419;-78
2021/05/13 10:01:14;;;;;;;1.83;0.80;;;;;;;16.09;40.65;91518.69;4979004;28;20027;-80
2021/05/13 10:03:40;;;;;;;1.65;0.85;;;;;;;16.62;43.72;91533.06;4962767;28;20042;-79
2021/05/13 10:06:10;;;;;;;2.00;0.90;;;;;;;16.49;36.66;91522.97;4986111;28;20026;-80
2021/05/13 10:08:38;;;;;;;1.90;0.80;;;;;;;16.17;42.14;91520.41;5000674;28;20034;-80
2021/05/13 10:11:05;;;;;;;1.90;1.00;;;;;;;16.57;34.74;91514.84;4982489;28;20130;-79
2021/05/13 10:13:32;;;;;;;1.65;0.80;;;;;;;16.77;31.72;91512.97;4983248;28;20070;-83
2021/05/13 10:15:59;;;;;;;1.10;0.77;;;;;;;16.75;35.23;91509.94;4965100;28;20308;-79
2021/05/13 10:18:39;;;;;;;2.33;0.90;;;;;;;17.12;40.77;91512.16;4970943;28;20513;-77
2021/05/13 10:21:13;;;;;;;1.33;0.88;;;;;;;17.50;37.88;91515.84;4962798;28;20045;-78
2021/05/13 10:23:58;;;;;;;1.90;0.95;;;;;;;17.18;33.94;91505.47;4975751;28;20512;-78
2021/05/13 10:26:29;;;;;;;2.65;0.90;;;;;;;17.35;40.84;91501.59;4976988;28;20045;-78
2021/05/13 10:28:56;;;;;;;1.33;0.70;;;;;;;17.32;33.32;91504.19;4980454;28;20050;-79
2021/05/13 10:31:36;;;;;;;1.67;0.90;;;;;;;17.89;32.93;91497.22;4979401;28;20303;-79
2021/05/13 10:34:02;;;;;;;1.45;0.93;;;;;;;17.41;32.14;91502.84;4980245;28;20060;-78
2021/05/13 10:36:28;;;;;;;1.27;0.82;;;;;;;16.99;30.01;91485.09;4982271;28;20529;-79
2021/05/13 10:39:10;;;;;;;3.72;0.80;;;;;;;16.74;30.98;91494.41;4983051;28;20055;-80
2021/05/13 10:41:39;;;;;;;1.50;0.83;;;;;;;16.81;32.41;91497.22;4965969;28;20034;-79
2021/05/13 10:44:07;;;;;;;1.23;0.77;;;;;;;16.60;31.05;91497.53;4981251;28;20281;-82
2021/05/13 10:46:33;;;;;;;2.00;0.68;;;;;;;16.86;29.94;91491.63;4971330;28;20035;-77
2021/05/13 10:49:37;;;;;;;0.80;0.60;;;;;;;16.16;33.24;91487.16;4979547;28;20031;-80
2021/05/13 10:52:30;;;;;;;2.28;1.00;;;;;;;16.52;33.94;91485.28;4970637;28;20038;-79
2021/05/13 10:54:56;;;;;;;6.85;1.00;;;;;;;16.44;35.02;91482.50;4970284;28;20046;-78
2021/05/13 10:57:22;;;;;;;1.13;0.70;;;;;;;16.23;34.23;91474.91;4976900;28;20406;-78
2021/05/13 11:00:09;;;;;;;1.58;0.57;;;;;;;16.60;32.67;91479.03;4975495;28;20118;-78
2021/05/13 11:02:44;;;;;;;14.18;7.72;;;;;;;16.62;30.98;91476.81;4959000;28;20057;-78
2021/05/13 11:05:28;;;;;;;16.40;9.13;;;;;;;16.73;33.85;91467.22;4959571;28;20106;-78
2021/05/13 11:07:55;;;;;;;1.88;1.00;;;;;;;16.98;33.49;91472.25;4976897;28;20031;-78
2021/05/13 11:10:58;;;;;;;6.18;3.42;;;;;;;16.54;29.31;91469.84;4976229;28;20054;-78
2021/05/13 11:13:42;;;;;;;1.67;1.20;;;;;;;17.08;32.98;91469.00;4958780;28;20049;-79
2021/05/13 11:18:41;;;;;;;3.88;1.20;;;;;;;17.16;32.66;91470.69;4957407;28;20053;-78
2021/05/13 11:21:07;;;;;;;1.73;0.90;;;;;;;17.51;31.79;91463.69;4975578;28;20031;-79
2021/05/13 11:23:32;;;;;;;0.90;0.60;;;;;;;17.76;31.09;91464.09;4975902;28;20498;-79
2021/05/13 11:26:05;;;;;;;0.68;0.52;;;;;;;17.78;32.43;91461.84;4976018;28;20153;-78
2021/05/13 11:28:50;;;;;;;1.50;0.60;;;;;;;17.82;29.33;91465.34;4975835;28;20042;-78
2021/05/13 11:31:20;;;;;;;1.98;0.85;;;;;;;17.85;31.29;91470.69;4940898;28;20043;-78
2021/05/13 11:33:58;;;;;;;1.17;0.80;;;;;;;17.92;30.90;91462.09;4975292;28;20090;-79
2021/05/13 11:36:30;;;;;;;1.77;0.73;;;;;;;17.88;30.77;91462.06;4975616;28;20046;-78
2021/05/13 11:38:56;;;;;;;1.48;0.75;;;;;;;17.85;30.32;91461.97;4975376;28;20030;-79
2021/05/13 11:41:23;;;;;;;0.73;0.60;;;;;;;17.87;29.32;91457.09;4958188;28;20023;-79
2021/05/13 11:43:50;;;;;;;0.93;0.60;;;;;;;17.87;28.92;91459.75;4958105;28;20050;-79
2021/05/13 11:46:22;;;;;;;1.77;0.65;;;;;;;17.86;30.04;91452.94;4975339;28;20023;-78
2021/05/13 11:48:49;;;;;;;;;;;;;;;17.91;30.81;91452.63;4990398;28;20054;-79
2021/05/13 11:51:15;;;;;;;1.77;0.70;;;;;;;17.60;28.79;91451.00;4975394;28;19921;-79
2021/05/13 11:53:46;;;;;;;1.67;0.70;;;;;;;17.65;29.91;91450.69;4961029;28;20039;-78
2021/05/13 11:56:13;;;;;;;1.52;0.68;;;;;;;17.70;30.89;91455.69;4974994;28;20393;-79
2021/05/13 11:58:48;;;;;;;1.00;0.60;;;;;;;17.67;30.51;91454.53;4975051;28;20113;-78